Mount Carmel, Kentucky
Current Conditions -  °F | °C
As of 11:55 PM on Thursday 30 Oct 2014 (Local Time) from KFGX Reporting Station
Clear Clear  
Wind Chill: 38°   Ceiling: Unl
Heat Index: 38°   Visibility: 10mi
Dew Point: 34°   Wind: 3mph
Humidity: 83%   Direction: 110°ESE
Pressure: 30.06"   Gusts: NA
Location:  38.436°N, 83.6931°W
Report Text: KFGX 310355Z AUTO 11003KT 10SM CLR 04/01 A3006 RMK AO2 T00350009
Loading
Personal Weather Stations






























Interactive Weather Map
Tropical Storm Tracking
New forecast layout! Learn more

10-Day Weather Forecast

Advertisements
Track Severe Weather on mobile